createdAt,value
2022-08-10T00:01:04.459Z,20.30
2022-08-10T00:05:58.002Z,20.30
2022-08-10T00:10:51.636Z,20.00
2022-08-10T00:15:53.481Z,19.70
2022-08-10T00:20:48.128Z,19.70
2022-08-10T00:25:41.506Z,19.90
2022-08-10T00:30:34.958Z,19.90
2022-08-10T00:35:29.946Z,19.90
2022-08-10T00:40:37.189Z,19.90
2022-08-10T00:45:31.417Z,20.00
2022-08-10T00:50:24.891Z,20.00
2022-08-10T00:55:20.530Z,19.90
2022-08-10T01:00:14.608Z,19.90
2022-08-10T01:05:14.415Z,19.90
2022-08-10T01:10:22.417Z,20.00
2022-08-10T01:15:29.887Z,20.00
2022-08-10T01:20:36.802Z,20.30
2022-08-10T01:26:11.600Z,20.40
2022-08-10T01:31:13.497Z,20.60
2022-08-10T01:36:14.124Z,20.60
2022-08-10T01:41:12.295Z,20.80
2022-08-10T01:46:09.492Z,20.80
2022-08-10T01:51:14.142Z,20.80
2022-08-10T01:56:09.329Z,20.70
2022-08-10T02:01:05.609Z,20.50
2022-08-10T02:06:03.583Z,20.10
2022-08-10T02:11:00.126Z,19.80
2022-08-10T02:16:01.093Z,19.70
2022-08-10T02:20:57.699Z,19.60
2022-08-10T02:25:56.413Z,19.40
2022-08-10T02:30:55.066Z,19.40
2022-08-10T02:35:55.981Z,19.50
2022-08-10T02:45:12.117Z,19.60
2022-08-10T02:46:21.303Z,19.70
2022-08-10T02:52:07.739Z,19.70
2022-08-10T02:56:52.673Z,19.80
2022-08-10T03:01:50.529Z,19.80
2022-08-10T03:06:52.754Z,19.80
2022-08-10T03:12:35.923Z,19.60
2022-08-10T03:17:06.146Z,19.60
2022-08-10T03:22:01.529Z,19.50
2022-08-10T03:26:58.790Z,19.50
2022-08-10T03:31:53.601Z,19.40
2022-08-10T03:36:47.918Z,19.30
2022-08-10T03:41:53.596Z,19.30
2022-08-10T03:46:50.423Z,19.30
2022-08-10T03:51:45.413Z,19.30
2022-08-10T03:56:41.720Z,19.20
2022-08-10T04:02:46.490Z,19.20
2022-08-10T04:06:54.656Z,19.00
2022-08-10T04:11:48.705Z,19.00
2022-08-10T04:16:41.990Z,19.00
2022-08-10T04:21:44.131Z,19.00
2022-08-10T04:26:43.788Z,19.00
2022-08-10T04:31:39.039Z,18.90
2022-08-10T04:36:36.890Z,19.00
2022-08-10T04:41:30.896Z,19.10
2022-08-10T04:46:55.190Z,19.00
2022-08-10T04:51:38.990Z,18.90
2022-08-10T04:56:32.622Z,19.10
2022-08-10T05:01:27.926Z,19.30
2022-08-10T05:06:41.151Z,19.50
2022-08-10T05:11:34.759Z,19.50
2022-08-10T05:16:32.116Z,19.50
2022-08-10T05:21:57.065Z,19.80
2022-08-10T05:26:55.243Z,19.80
2022-08-10T05:31:54.287Z,19.80
2022-08-10T05:36:48.261Z,19.70
2022-08-10T05:41:46.037Z,19.60
2022-08-10T05:46:41.430Z,19.80
2022-08-10T05:51:36.638Z,19.80
2022-08-10T05:56:53.490Z,20.00
2022-08-10T06:02:31.873Z,19.80
2022-08-10T06:07:05.658Z,19.90
2022-08-10T06:12:24.486Z,19.90
2022-08-10T06:17:17.950Z,19.80
2022-08-10T06:22:13.835Z,19.90
2022-08-10T06:27:07.552Z,19.90
2022-08-10T06:32:03.581Z,19.90
2022-08-10T06:37:01.145Z,19.90
2022-08-10T06:42:16.738Z,20.00
2022-08-10T06:47:15.175Z,20.00
2022-08-10T06:52:18.558Z,20.20
2022-08-10T06:57:18.505Z,20.30
2022-08-10T07:02:26.752Z,20.40
2022-08-10T07:07:29.999Z,20.50
2022-08-10T07:12:27.370Z,20.60
2022-08-10T07:17:25.203Z,20.60
2022-08-10T07:23:27.372Z,20.70
2022-08-10T07:27:58.781Z,20.90
2022-08-10T07:32:55.979Z,21.10
2022-08-10T07:37:52.345Z,21.20
2022-08-10T07:42:49.478Z,21.40
2022-08-10T07:47:53.596Z,21.80
2022-08-10T07:52:50.860Z,22.00
2022-08-10T07:57:50.672Z,22.20
2022-08-10T08:02:50.683Z,22.40
2022-08-10T08:07:47.559Z,22.60
2022-08-10T08:12:43.771Z,22.70
2022-08-10T08:17:42.321Z,22.60
2022-08-10T08:24:13.657Z,22.70
2022-08-10T08:27:56.517Z,22.90
2022-08-10T08:32:53.403Z,23.20
2022-08-10T08:38:30.200Z,23.40
2022-08-10T08:43:34.810Z,23.50
2022-08-10T08:48:56.173Z,23.80
2022-08-10T08:54:09.126Z,23.90
2022-08-10T08:59:24.711Z,24.00
2022-08-10T09:04:57.350Z,24.10
2022-08-10T09:10:04.843Z,24.30
2022-08-10T09:15:05.749Z,24.30
2022-08-10T09:20:11.031Z,24.50
2022-08-10T09:25:17.891Z,24.70
2022-08-10T09:30:17.538Z,25.00
2022-08-10T09:36:27.929Z,25.10
2022-08-10T09:40:59.376Z,25.10
2022-08-10T09:46:11.828Z,25.00
2022-08-10T09:51:43.782Z,25.20
2022-08-10T09:56:42.278Z,25.20
2022-08-10T10:02:02.981Z,25.20
2022-08-10T10:07:05.694Z,25.30
2022-08-10T10:12:19.200Z,25.40
2022-08-10T10:17:22.818Z,25.60
2022-08-10T10:22:47.180Z,25.50
2022-08-10T10:27:50.254Z,25.80
2022-08-10T10:32:59.830Z,26.10
2022-08-10T10:38:01.557Z,26.10
2022-08-10T10:43:09.691Z,26.20
2022-08-10T10:48:24.366Z,26.20
2022-08-10T10:53:35.438Z,26.30
2022-08-10T10:58:42.246Z,26.20
2022-08-10T11:04:11.270Z,26.30
2022-08-10T11:10:03.192Z,26.30
2022-08-10T11:14:37.366Z,26.50
2022-08-10T11:20:02.976Z,26.70
2022-08-10T11:25:08.139Z,26.50
2022-08-10T11:30:08.051Z,26.50
2022-08-10T11:35:13.423Z,26.60
2022-08-10T11:40:17.707Z,26.70
2022-08-10T11:45:19.018Z,26.80
2022-08-10T11:50:24.341Z,26.90
2022-08-10T11:55:23.191Z,26.90
2022-08-10T12:00:18.635Z,27.00
2022-08-10T12:05:18.921Z,27.00
2022-08-10T12:10:14.894Z,27.00
2022-08-10T12:15:20.833Z,26.90
2022-08-10T12:20:25.935Z,26.80
2022-08-10T12:25:55.876Z,27.00
2022-08-10T12:30:55.308Z,26.90
2022-08-10T12:36:17.852Z,26.80
2022-08-10T12:41:25.372Z,26.80
2022-08-10T12:46:51.237Z,26.80
2022-08-10T12:51:51.950Z,26.70
2022-08-10T12:56:51.135Z,26.70
2022-08-10T13:02:10.428Z,26.80
2022-08-10T13:07:08.730Z,26.70
2022-08-10T13:12:38.824Z,26.80
2022-08-10T13:17:38.820Z,26.80
2022-08-10T13:22:39.085Z,26.70
2022-08-10T13:28:00.615Z,26.60
2022-08-10T13:33:01.184Z,26.50
2022-08-10T13:37:58.080Z,26.60
2022-08-10T13:42:54.550Z,26.60
2022-08-10T13:47:52.117Z,26.60
2022-08-10T13:52:54.526Z,26.70
2022-08-10T13:57:56.696Z,26.60
2022-08-10T14:03:06.226Z,26.60
2022-08-10T14:08:03.866Z,26.70
2022-08-10T14:13:04.448Z,26.70
2022-08-10T14:18:01.783Z,26.60
2022-08-10T14:23:18.599Z,26.60
2022-08-10T14:28:14.680Z,26.60
2022-08-10T14:33:14.724Z,26.60
2022-08-10T14:38:15.301Z,26.60
2022-08-10T14:43:16.249Z,26.60
2022-08-10T14:48:31.720Z,26.60
2022-08-10T14:53:34.525Z,26.60
2022-08-10T14:58:32.933Z,26.60
2022-08-10T15:03:58.673Z,26.50
2022-08-10T15:08:48.902Z,26.60
2022-08-10T15:14:12.323Z,26.60
2022-08-10T15:20:00.866Z,26.50
2022-08-10T15:24:36.155Z,26.60
2022-08-10T15:29:30.006Z,26.50
2022-08-10T15:34:44.187Z,26.50
2022-08-10T15:40:24.363Z,26.50
2022-08-10T15:44:59.425Z,26.50
2022-08-10T15:49:59.986Z,26.50
2022-08-10T15:55:43.131Z,26.40
2022-08-10T16:00:48.919Z,26.50
2022-08-10T16:06:02.052Z,26.60
2022-08-10T16:11:04.002Z,26.60
2022-08-10T16:16:02.541Z,26.50
2022-08-10T16:21:01.699Z,26.50
2022-08-10T16:26:15.074Z,26.50
2022-08-10T16:31:20.298Z,26.50
2022-08-10T16:36:20.676Z,26.40
2022-08-10T16:41:59.593Z,26.40
2022-08-10T16:46:34.940Z,26.30
2022-08-10T16:51:29.311Z,26.20
2022-08-10T16:56:48.629Z,26.20
2022-08-10T17:01:51.675Z,26.20
2022-08-10T17:06:56.673Z,26.00
2022-08-10T17:11:58.240Z,26.00
2022-08-10T17:16:57.242Z,25.90
2022-08-10T17:21:57.047Z,25.90
2022-08-10T17:26:52.959Z,25.80
2022-08-10T17:31:54.889Z,25.70
2022-08-10T17:36:57.128Z,25.70
2022-08-10T17:41:55.741Z,25.70
2022-08-10T17:46:56.060Z,25.70
2022-08-10T17:51:57.590Z,25.60
2022-08-10T17:56:56.731Z,25.50
2022-08-10T18:01:58.773Z,25.40
2022-08-10T18:06:57.404Z,25.30
2022-08-10T18:12:02.730Z,25.20
2022-08-10T18:17:14.994Z,25.10
2022-08-10T18:22:12.823Z,25.00
2022-08-10T18:27:09.689Z,24.90
2022-08-10T18:32:05.909Z,24.80
2022-08-10T18:37:00.609Z,24.80
2022-08-10T18:42:05.417Z,24.80
2022-08-10T18:47:07.476Z,24.60
2022-08-10T18:52:05.322Z,24.30
2022-08-10T18:57:01.283Z,24.20
2022-08-10T19:02:19.077Z,24.10
2022-08-10T19:07:49.116Z,24.00
2022-08-10T19:12:52.838Z,23.90
2022-08-10T19:18:06.149Z,23.80
2022-08-10T19:23:16.504Z,23.70
2022-08-10T19:28:14.973Z,23.50
2022-08-10T19:33:33.192Z,23.50
2022-08-10T19:38:35.349Z,23.40
2022-08-10T19:44:00.409Z,23.30
2022-08-10T19:49:03.833Z,23.20
2022-08-10T19:54:11.281Z,23.10
2022-08-10T20:00:16.378Z,23.00
2022-08-10T20:04:47.357Z,22.90
2022-08-10T20:09:50.380Z,22.80
2022-08-10T20:15:01.621Z,22.70
2022-08-10T20:20:08.155Z,22.50
2022-08-10T20:25:14.081Z,22.20
2022-08-10T20:30:14.203Z,22.20
2022-08-10T20:35:14.283Z,22.10
2022-08-10T20:40:19.246Z,22.00
2022-08-10T20:45:22.503Z,22.00
2022-08-10T20:50:34.775Z,21.90
2022-08-10T20:55:47.794Z,21.90
2022-08-10T21:01:01.857Z,21.70
2022-08-10T21:06:18.811Z,21.80
2022-08-10T21:11:36.728Z,21.70
2022-08-10T21:16:58.622Z,21.90
2022-08-10T21:22:15.712Z,22.00
2022-08-10T21:27:27.247Z,22.00
2022-08-10T21:32:38.408Z,22.00
2022-08-10T21:37:47.285Z,22.00
2022-08-10T21:43:21.785Z,21.90
2022-08-10T21:48:57.833Z,21.90
2022-08-10T21:54:22.705Z,21.40
2022-08-10T21:59:50.886Z,21.30
2022-08-10T22:05:07.907Z,21.30
2022-08-10T22:10:26.563Z,21.30
2022-08-10T22:16:05.401Z,21.50
2022-08-10T22:21:28.949Z,21.50
2022-08-10T22:27:47.166Z,21.50
2022-08-10T22:33:06.932Z,21.40
2022-08-10T22:38:38.784Z,21.50
2022-08-10T22:43:54.984Z,21.50
2022-08-10T22:49:01.374Z,21.50
2022-08-10T22:54:30.441Z,21.20
2022-08-10T22:59:32.028Z,21.20
2022-08-10T23:04:39.214Z,21.00
2022-08-10T23:09:37.783Z,21.00
2022-08-10T23:14:41.535Z,20.80
2022-08-10T23:20:06.733Z,20.70
2022-08-10T23:25:10.102Z,20.80
2022-08-10T23:30:17.503Z,20.80
2022-08-10T23:36:31.313Z,20.60
2022-08-10T23:40:30.249Z,20.60
2022-08-10T23:45:28.710Z,20.50
2022-08-10T23:50:42.757Z,20.70
2022-08-10T23:55:52.406Z,20.60
